Terminal Aerodrome Forecast
Issued by NWS

Home | Current Version | Previous Version | Text Only | Print | Product List | Glossary On
Versions: 1 2 3 4 5 6 7 8 9 10 11 12 13 14 15 16 17 18 19
291
FTUS44 KMAF 272335
TAFINK
TAF
KINK 272335Z 2800/2824 25020G30KT P6SM SCT250
     FM280300 24011KT P6SM FEW250
     FM281000 28010KT P6SM FEW250
     FM281800 25018G28KT P6SM SCT250=

USA.gov is the U.S. government's official web portal to all federal, state and local government web resources and services.